Time,TemperatureF,DewpointF,PressureIn,WindDirection,WindDirectionDegrees,WindSpeedMPH,WindSpeedGustMPH,Humidity,HourlyPrecipIn,Conditions,Clouds,dailyrainin,SoftwareType,DateUTC
2014-07-29 00:00:00,-999.0,-99.9,-100.00,North,-999,-999.0,-999.0,-999,-99.99,,,-99.99,Graphweather,2014-07-29 04:00:00,
2014-07-29 00:04:00,79.0,77.0,30.09,East,90,2.5,3.1,95,0.00,,,0.00,Graphweather,2014-07-29 04:04:00,
2014-07-29 00:10:00,79.2,78.8,30.09,SE,135,2.2,3.8,95,0.00,,,0.00,Graphweather,2014-07-29 04:10:00,
2014-07-29 00:14:00,79.3,78.8,30.09,ESE,112,3.1,5.6,95,0.00,,,0.00,Graphweather,2014-07-29 04:14:00,
2014-07-29 00:20:00,79.3,78.8,30.09,ESE,112,2.2,5.8,95,0.00,,,0.00,Graphweather,2014-07-29 04:20:00,
2014-07-29 00:25:00,79.2,78.8,30.09,East,90,3.4,6.0,95,0.00,,,0.00,Graphweather,2014-07-29 04:25:00,
2014-07-29 00:34:00,79.0,77.0,30.09,East,90,2.7,3.6,95,0.00,,,0.00,Graphweather,2014-07-29 04:34:00,
2014-07-29 00:40:00,79.2,78.8,30.09,East,90,2.0,4.7,95,0.00,,,0.00,Graphweather,2014-07-29 04:40:00,
2014-07-29 00:49:00,79.0,77.0,30.09,SE,135,2.9,4.5,95,0.00,,,0.00,Graphweather,2014-07-29 04:49:00,
2014-07-29 00:55:00,79.0,77.0,30.09,ESE,112,2.9,4.3,95,0.00,,,0.00,Graphweather,2014-07-29 04:55:00,
2014-07-29 00:59:00,79.0,77.0,30.09,East,90,2.5,3.4,95,0.00,,,0.00,Graphweather,2014-07-29 04:59:00,
2014-07-29 01:04:00,79.0,77.0,30.06,ESE,112,2.5,5.6,95,0.00,,,0.00,Graphweather,2014-07-29 05:04:00,
2014-07-29 01:10:00,79.0,77.0,30.06,ESE,112,2.7,5.4,95,0.00,,,0.00,Graphweather,2014-07-29 05:10:00,
2014-07-29 01:19:00,79.2,78.8,30.06,ESE,112,3.4,6.3,95,0.00,,,0.00,Graphweather,2014-07-29 05:19:00,
2014-07-29 01:25:00,79.0,77.0,30.06,South,180,2.7,7.8,95,0.00,,,0.00,Graphweather,2014-07-29 05:25:00,
2014-07-29 01:30:00,79.0,77.0,30.06,East,90,2.7,6.9,95,0.00,,,0.00,Graphweather,2014-07-29 05:30:00,
2014-07-29 01:40:00,78.8,77.0,30.06,East,90,2.0,4.3,95,0.00,,,0.00,Graphweather,2014-07-29 05:40:00,
2014-07-29 01:45:00,78.6,77.0,30.06,East,90,2.5,4.9,95,0.00,,,0.00,Graphweather,2014-07-29 05:45:00,
2014-07-29 01:54:00,78.6,77.0,30.06,East,90,2.2,4.3,95,0.00,,,0.00,Graphweather,2014-07-29 05:54:00,
2014-07-29 02:00:00,78.6,77.0,30.06,SSW,202,2.9,4.3,95,0.00,,,0.00,Graphweather,2014-07-29 06:00:00,
2014-07-29 02:09:00,78.6,77.0,30.06,East,90,2.0,4.3,95,0.00,,,0.00,Graphweather,2014-07-29 06:09:00,
2014-07-29 02:15:00,78.6,77.0,30.06,ENE,67,2.2,3.8,95,0.00,,,0.00,Graphweather,2014-07-29 06:15:00,
2014-07-29 02:25:00,78.4,77.0,30.03,SSW,202,2.2,5.6,95,0.00,,,0.00,Graphweather,2014-07-29 06:25:00,
2014-07-29 02:30:00,78.4,77.0,30.03,East,90,2.5,4.0,95,0.00,,,0.00,Graphweather,2014-07-29 06:30:00,
2014-07-29 02:39:00,78.6,77.0,30.03,NW,315,2.2,3.6,95,0.00,,,0.00,Graphweather,2014-07-29 06:39:00,
2014-07-29 02:45:00,78.4,77.0,30.03,East,90,2.0,3.4,95,0.00,,,0.00,Graphweather,2014-07-29 06:45:00,
2014-07-29 02:50:00,78.6,77.0,30.03,East,90,1.6,4.3,95,0.00,,,0.00,Graphweather,2014-07-29 06:50:00,
2014-07-29 03:00:00,78.6,77.0,30.03,ESE,112,2.0,3.6,95,0.00,,,0.00,Graphweather,2014-07-29 07:00:00,
2014-07-29 03:09:00,78.6,77.0,30.03,East,90,1.1,3.4,95,0.00,,,0.00,Graphweather,2014-07-29 07:09:00,
2014-07-29 03:19:00,78.6,77.0,30.03,NE,45,2.5,4.7,95,0.00,,,0.00,Graphweather,2014-07-29 07:19:00,
2014-07-29 03:24:00,78.6,77.0,30.03,ESE,112,2.5,6.0,95,0.00,,,0.00,Graphweather,2014-07-29 07:24:00,
2014-07-29 03:34:00,78.6,77.0,30.00,SE,135,2.5,4.0,95,0.00,,,0.00,Graphweather,2014-07-29 07:34:00,
2014-07-29 03:39:00,78.6,77.0,30.00,SE,135,2.5,3.8,95,0.00,,,0.00,Graphweather,2014-07-29 07:39:00,
2014-07-29 03:48:00,78.6,77.0,30.03,East,90,2.7,6.9,95,0.00,,,0.00,Graphweather,2014-07-29 07:48:00,
2014-07-29 03:54:00,78.6,77.0,30.03,NNE,22,2.5,3.8,95,0.00,,,0.00,Graphweather,2014-07-29 07:54:00,
2014-07-29 04:03:00,78.6,77.0,30.03,East,90,1.3,3.1,95,0.00,,,0.00,Graphweather,2014-07-29 08:03:00,
2014-07-29 04:09:00,78.6,77.0,30.03,ESE,112,1.6,4.7,95,0.00,,,0.00,Graphweather,2014-07-29 08:09:00,
2014-07-29 04:18:00,78.6,77.0,30.03,East,90,2.2,3.6,95,0.00,,,0.00,Graphweather,2014-07-29 08:18:00,
2014-07-29 04:24:00,78.6,77.0,30.03,East,90,1.6,3.6,95,0.00,,,0.00,Graphweather,2014-07-29 08:24:00,
2014-07-29 04:33:00,79.0,77.0,30.03,ESE,112,1.3,2.9,95,0.00,,,0.00,Graphweather,2014-07-29 08:33:00,
2014-07-29 04:39:00,78.4,77.0,30.03,SE,135,2.9,4.0,96,0.00,,,0.00,Graphweather,2014-07-29 08:39:00,
2014-07-29 04:48:00,77.9,77.0,30.03,ESE,112,2.5,5.6,95,0.00,,,0.00,Graphweather,2014-07-29 08:48:00,
2014-07-29 04:54:00,77.7,77.0,30.03,East,90,2.7,3.8,95,0.00,,,0.00,Graphweather,2014-07-29 08:54:00,
2014-07-29 05:03:00,77.7,77.0,30.03,East,90,2.5,6.0,95,0.00,,,0.00,Graphweather,2014-07-29 09:03:00,
2014-07-29 05:09:00,77.7,77.0,30.03,East,90,2.7,4.0,95,0.00,,,0.00,Graphweather,2014-07-29 09:09:00,
2014-07-29 05:18:00,77.7,77.0,30.00,ESE,112,2.5,4.7,95,0.00,,,0.00,Graphweather,2014-07-29 09:18:00,
2014-07-29 05:24:00,77.7,77.0,30.00,ESE,112,2.5,3.8,95,0.00,,,0.00,Graphweather,2014-07-29 09:24:00,
2014-07-29 05:29:00,77.7,77.0,30.00,ESE,112,2.0,3.4,95,0.00,,,0.00,Graphweather,2014-07-29 09:29:00,
2014-07-29 05:39:00,77.9,77.0,30.03,East,90,2.5,4.0,95,0.00,,,0.00,Graphweather,2014-07-29 09:39:00,
2014-07-29 05:44:00,78.1,77.0,30.03,ESE,112,2.2,4.3,95,0.00,,,0.00,Graphweather,2014-07-29 09:44:00,
2014-07-29 05:54:00,78.1,77.0,30.03,ESE,112,2.0,3.8,95,0.00,,,0.00,Graphweather,2014-07-29 09:54:00,
2014-07-29 05:59:00,78.1,77.0,30.03,SE,135,2.7,4.3,95,0.00,,,0.00,Graphweather,2014-07-29 09:59:00,
2014-07-29 06:08:00,78.4,77.0,30.03,ESE,112,2.2,4.5,95,0.00,,,0.00,Graphweather,2014-07-29 10:08:00,
2014-07-29 06:13:00,78.6,77.0,30.03,ESE,112,2.2,3.4,95,0.00,,,0.00,Graphweather,2014-07-29 10:13:00,
2014-07-29 06:19:00,78.8,77.0,30.03,SE,135,1.3,3.1,95,0.00,,,0.00,Graphweather,2014-07-29 10:19:00,
2014-07-29 06:28:00,82.0,80.6,30.03,East,90,2.0,3.6,94,0.00,,,0.00,Graphweather,2014-07-29 10:28:00,
2014-07-29 06:34:00,83.5,80.6,30.03,East,90,2.0,3.4,92,0.00,,,0.00,Graphweather,2014-07-29 10:34:00,
2014-07-29 06:44:00,85.6,82.4,30.03,ESE,112,1.6,3.4,89,0.00,,,0.00,Graphweather,2014-07-29 10:44:00,
2014-07-29 06:49:00,85.5,80.6,30.03,East,90,2.2,3.8,88,0.00,,,0.00,Graphweather,2014-07-29 10:49:00,
2014-07-29 06:59:00,86.9,82.4,30.03,East,90,2.0,3.6,86,0.00,,,0.00,Graphweather,2014-07-29 10:59:00,
2014-07-29 07:08:00,87.6,82.4,30.06,East,90,2.5,4.7,83,0.00,,,0.00,Graphweather,2014-07-29 11:08:00,
2014-07-29 07:14:00,84.7,80.6,30.06,East,90,1.6,3.6,85,0.00,,,0.00,Graphweather,2014-07-29 11:14:00,
2014-07-29 07:23:00,86.5,82.4,30.06,East,90,2.9,4.7,86,0.00,,,0.00,Graphweather,2014-07-29 11:23:00,
2014-07-29 07:29:00,87.8,82.4,30.06,East,90,2.5,4.0,84,0.00,,,0.00,Graphweather,2014-07-29 11:29:00,
2014-07-29 07:38:00,88.9,82.4,30.06,ESE,112,2.9,4.3,82,0.00,,,0.00,Graphweather,2014-07-29 11:38:00,
2014-07-29 07:44:00,88.7,82.4,30.06,East,90,2.7,6.5,83,0.00,,,0.00,Graphweather,2014-07-29 11:44:00,
2014-07-29 07:53:00,90.5,84.2,30.06,SSW,202,2.2,3.8,79,0.00,,,0.00,Graphweather,2014-07-29 11:53:00,
2014-07-29 07:59:00,90.3,82.4,30.06,East,90,3.1,4.3,78,0.00,,,0.00,Graphweather,2014-07-29 11:59:00,
2014-07-29 08:09:00,91.0,82.4,30.06,ESE,112,2.5,5.4,76,0.00,,,0.00,Graphweather,2014-07-29 12:09:00,
2014-07-29 08:18:00,94.1,86.0,30.06,NE,45,2.2,4.7,74,0.00,,,0.00,Graphweather,2014-07-29 12:18:00,
2014-07-29 08:24:00,94.8,86.0,30.06,North,0,2.9,6.0,73,0.00,,,0.00,Graphweather,2014-07-29 12:24:00,
2014-07-29 08:34:00,95.4,84.2,30.09,East,90,3.1,6.3,68,0.00,,,0.00,Graphweather,2014-07-29 12:34:00,
2014-07-29 08:39:00,94.6,80.6,30.09,East,90,2.7,4.7,66,0.00,,,0.00,Graphweather,2014-07-29 12:39:00,
2014-07-29 08:49:00,96.3,84.2,30.09,ESE,112,2.5,4.3,67,0.00,,,0.00,Graphweather,2014-07-29 12:49:00,
2014-07-29 08:58:00,95.9,82.4,30.09,ESE,112,2.5,5.6,66,0.00,,,0.00,Graphweather,2014-07-29 12:58:00,
2014-07-29 09:08:00,96.3,82.4,30.09,ESE,112,2.7,6.5,63,0.00,,,0.00,Graphweather,2014-07-29 13:08:00,
2014-07-29 09:13:00,97.3,82.4,30.09,East,90,2.2,4.9,63,0.00,,,0.00,Graphweather,2014-07-29 13:13:00,
2014-07-29 09:19:00,97.2,82.4,30.09,South,180,2.9,4.0,62,0.00,,,0.00,Graphweather,2014-07-29 13:19:00,
2014-07-29 09:29:00,96.8,82.4,30.09,East,90,2.7,5.6,62,0.00,,,0.00,Graphweather,2014-07-29 13:29:00,
2014-07-29 09:38:00,96.8,82.4,30.09,East,90,2.5,4.0,63,0.00,,,0.00,Graphweather,2014-07-29 13:38:00,
2014-07-29 09:44:00,97.9,84.2,30.09,ESE,112,2.5,4.9,64,0.00,,,0.00,Graphweather,2014-07-29 13:44:00,
2014-07-29 09:53:00,96.8,82.4,30.09,East,90,3.1,4.9,64,0.00,,,0.00,Graphweather,2014-07-29 13:53:00,
2014-07-29 09:59:00,94.5,82.4,30.09,ESE,112,2.7,4.5,67,0.00,,,0.00,Graphweather,2014-07-29 13:59:00,
2014-07-29 10:08:00,95.7,82.4,30.09,NNW,337,3.4,5.8,66,0.00,,,0.00,Graphweather,2014-07-29 14:08:00,
2014-07-29 10:14:00,97.2,84.2,30.09,East,90,2.5,4.0,65,0.00,,,0.00,Graphweather,2014-07-29 14:14:00,